Flight Number: EUR2087 Duration: 1:15
Departure: Munich Int'l (EDDM) at 08:15 Distance: 369 Nm
Arrival: Paris Charles-de-Gaulle (LFPG) at 09:30 Equipment: MD-81

Weather Information
Munchen, Germany (EDDM) 48-21N 011-47E Jan 21, 2019 - 07:50 AM EST / 2019.01.21 1250 UTC
Wind: Variable at 2 MPH (2 KT):0
Visibility: greater than 7 mile(s):0
Sky conditions: mostly clear Temperature: 28 F (-2 C) Dew Point: 23 F (-5 C) Relative Humidity: 79% Pressure (altimeter): 30.06 in. Hg (1018 hPa)
ob: EDDM 211250Z VRB02KT 9999 FEW018 M02/M05 Q1018 NOSIG cycle: 13
Sunrise: 06:57 Sunset: 15:50 (UTC)

Paris-Aeroport Charles De Gaulle, France (LFPG) 49-01N 002-32E 109M Jan 21, 2019 - 07:30 AM EST / 2019.01.21 1230 UTC
Wind: from the ENE (070 degrees) at 5 MPH (4 KT) (direction variable):0
Visibility: 5 mile(s):0 Temperature: 33 F (1 C)
Windchill: 28 F (-2 C):1 Dew Point: 26 F (-3 C) Relative Humidity: 74% Pressure (altimeter): 30.21 in. Hg (1023 hPa)
ob: LFPG 211230Z 07004KT 020V130 9000 NSC 01/M03 Q1023 NOSIG cycle: 12
Sunrise: 07:37 Sunset: 16:25 (UTC)

TAF:2019/01/21 12:22 TAF LFPG 211100Z 2112/2218 02003KT 6000 NSC TX02/2114Z TNM02/2200Z BECMG 2122/2124 20010KT BECMG 2205/2207 4000 -SN BKN010 TEMPO 2208/2212 1500 SN BKN004 BECMG 2212/2214 6000 NSW BKN010 PROB40 TEMPO 2213/2215 -SHRASN BKN008

Previous Pireps for this route
Date Aircraft Flight time Fuel used Landing rate On time
2012-10-24MD-811.2095730Yes
2013-09-16CRJ70001.357626-118No
2013-10-14MD-811.15271870No
2014-01-24MD-8101.3310421-170No
2014-03-19CRJ70001.347343-208No
2014-04-11CRJ70001.257150-256Yes
2014-05-10CRJ7001.2450300Yes
2014-05-24MD-811.24159910Yes
2014-07-10B73701.4013777-308Charter
2015-01-17CRJ7001.1532760Yes
2015-04-10CRJ7001.1535270Yes
2015-09-16CRJ7001.358112-805No
2015-11-11A32101.087686-175Charter
2016-03-07MD-8101.269535-133Yes
2016-08-27MD-8101.279575-272Yes
(pireps marked green are flown by you)

Route map